createdAt,value
2019-05-06T00:00:34.947Z,6.40
2019-05-06T00:03:05.034Z,7.10
2019-05-06T00:05:34.158Z,11.03
2019-05-06T00:08:03.917Z,6.83
2019-05-06T00:10:36.104Z,7.93
2019-05-06T00:13:04.884Z,15.47
2019-05-06T00:15:34.292Z,20.03
2019-05-06T00:18:04.557Z,7.87
2019-05-06T00:20:34.823Z,4.87
2019-05-06T00:23:05.532Z,14.10
2019-05-06T00:25:55.784Z,28.30
2019-05-06T00:28:29.677Z,11.70
2019-05-06T00:31:10.337Z,11.07
2019-05-06T00:33:34.143Z,10.33
2019-05-06T00:36:04.751Z,11.17
2019-05-06T00:38:34.157Z,9.87
2019-05-06T00:41:14.417Z,9.70
2019-05-06T00:43:43.748Z,18.33
2019-05-06T00:46:13.874Z,15.53
2019-05-06T00:48:44.779Z,8.23
2019-05-06T00:51:13.594Z,15.20
2019-05-06T00:53:44.174Z,8.13
2019-05-06T00:56:14.011Z,15.73
2019-05-06T00:58:43.617Z,5.00
2019-05-06T01:01:24.065Z,7.43
2019-05-06T01:03:44.259Z,8.77
2019-05-06T01:06:14.202Z,6.20
2019-05-06T01:08:44.081Z,8.17
2019-05-06T01:11:14.459Z,8.73
2019-05-06T01:13:47.705Z,10.83
2019-05-06T01:16:18.207Z,13.10
2019-05-06T01:18:46.931Z,4.77
2019-05-06T01:21:16.036Z,14.60
2019-05-06T01:23:45.599Z,12.70
2019-05-06T01:26:15.650Z,6.40
2019-05-06T01:28:45.954Z,6.40
2019-05-06T01:31:15.031Z,9.33
2019-05-06T01:33:45.297Z,13.23
2019-05-06T01:36:14.359Z,6.90
2019-05-06T01:38:47.982Z,6.73
2019-05-06T01:41:27.329Z,16.17
2019-05-06T01:43:56.209Z,5.67
2019-05-06T01:46:25.122Z,10.07
2019-05-06T01:48:53.922Z,7.53
2019-05-06T01:51:24.097Z,4.30
2019-05-06T01:53:54.501Z,10.80
2019-05-06T01:56:24.192Z,13.63
2019-05-06T01:58:53.616Z,8.97
2019-05-06T02:01:24.889Z,11.77
2019-05-06T02:03:53.825Z,8.13
2019-05-06T02:06:24.801Z,17.07
2019-05-06T02:08:53.979Z,10.70
2019-05-06T02:11:24.144Z,8.80
2019-05-06T02:13:53.801Z,5.30
2019-05-06T02:16:24.108Z,9.57
2019-05-06T02:18:54.044Z,12.90
2019-05-06T02:21:27.740Z,12.70
2019-05-06T02:24:06.823Z,12.73
2019-05-06T02:26:35.588Z,14.03
2019-05-06T02:29:15.280Z,13.10
2019-05-06T02:32:17.412Z,17.00
2019-05-06T02:34:54.604Z,6.77
2019-05-06T02:37:39.906Z,8.77
2019-05-06T02:40:29.083Z,5.93
2019-05-06T02:42:58.574Z,9.17
2019-05-06T02:45:27.447Z,19.43
2019-05-06T02:48:04.486Z,17.03
2019-05-06T02:50:47.106Z,11.27
2019-05-06T02:53:17.584Z,17.17
2019-05-06T02:55:46.364Z,7.00
2019-05-06T02:58:15.190Z,10.90
2019-05-06T03:00:44.153Z,8.77
2019-05-06T03:03:14.081Z,9.77
2019-05-06T03:05:44.273Z,21.60
2019-05-06T03:08:13.710Z,7.77
2019-05-06T03:10:44.157Z,12.60
2019-05-06T03:13:14.303Z,13.80
2019-05-06T03:15:43.762Z,11.03
2019-05-06T03:18:14.706Z,9.00
2019-05-06T03:20:58.530Z,15.63
2019-05-06T03:23:38.155Z,13.53
2019-05-06T03:26:07.146Z,10.80
2019-05-06T03:28:35.935Z,13.20
2019-05-06T03:31:06.665Z,16.33
2019-05-06T03:33:55.277Z,16.83
2019-05-06T03:36:15.155Z,6.50
2019-05-06T03:38:36.137Z,14.20
2019-05-06T03:41:04.980Z,11.17
2019-05-06T03:43:34.110Z,10.77
2019-05-06T03:46:04.754Z,16.03
2019-05-06T03:48:35.219Z,21.13
2019-05-06T03:51:04.336Z,14.60
2019-05-06T03:53:34.812Z,11.83
2019-05-06T03:56:04.377Z,8.53
2019-05-06T03:58:36.910Z,7.53
2019-05-06T04:01:05.801Z,6.57
2019-05-06T04:03:46.943Z,13.47
2019-05-06T04:06:05.077Z,20.57
2019-05-06T04:08:34.496Z,12.40
2019-05-06T04:11:03.824Z,6.57
2019-05-06T04:13:33.742Z,21.00
2019-05-06T04:16:19.686Z,12.07
2019-05-06T04:18:53.486Z,16.87
2019-05-06T04:21:25.672Z,27.03
2019-05-06T04:24:08.276Z,9.40
2019-05-06T04:26:47.854Z,19.77
2019-05-06T04:29:17.023Z,10.03
2019-05-06T04:31:45.999Z,10.90
2019-05-06T04:34:19.463Z,13.47
2019-05-06T04:36:45.626Z,12.63
2019-05-06T04:39:14.507Z,10.03
2019-05-06T04:41:43.557Z,10.20
2019-05-06T04:44:13.980Z,13.83
2019-05-06T04:46:44.296Z,9.07
2019-05-06T04:49:15.080Z,12.07
2019-05-06T04:51:44.218Z,7.60
2019-05-06T04:54:13.716Z,17.60
2019-05-06T04:56:43.708Z,16.57
2019-05-06T04:59:13.906Z,14.03
2019-05-06T05:01:45.587Z,7.63
2019-05-06T05:04:24.448Z,10.13
2019-05-06T05:06:44.353Z,7.43
2019-05-06T05:09:16.561Z,6.60
2019-05-06T05:11:48.464Z,7.50
2019-05-06T05:14:25.655Z,7.60
2019-05-06T05:16:54.421Z,9.83
2019-05-06T05:19:23.286Z,15.07
2019-05-06T05:21:53.740Z,11.87
2019-05-06T05:24:23.527Z,14.37
2019-05-06T05:26:52.428Z,8.30
2019-05-06T05:29:22.877Z,12.03
2019-05-06T05:31:52.981Z,13.23
2019-05-06T05:34:22.575Z,7.23
2019-05-06T05:36:52.732Z,11.20
2019-05-06T05:39:22.251Z,10.80
2019-05-06T05:41:52.462Z,7.83
2019-05-06T05:44:22.975Z,15.13
2019-05-06T05:46:52.524Z,6.30
2019-05-06T05:49:32.561Z,11.20
2019-05-06T05:52:03.375Z,10.63
2019-05-06T05:54:33.201Z,10.33
2019-05-06T05:57:02.435Z,7.47
2019-05-06T05:59:32.945Z,11.50
2019-05-06T06:02:03.883Z,12.03
2019-05-06T06:04:33.308Z,8.70
2019-05-06T06:07:02.648Z,11.30
2019-05-06T06:09:33.781Z,10.73
2019-05-06T06:12:04.360Z,4.27
2019-05-06T06:14:40.720Z,6.00
2019-05-06T06:17:20.654Z,10.30
2019-05-06T06:20:02.509Z,11.57
2019-05-06T06:22:33.050Z,7.90
2019-05-06T06:25:04.065Z,5.60
2019-05-06T06:27:34.237Z,12.07
2019-05-06T06:30:04.030Z,7.67
2019-05-06T06:32:33.304Z,7.10
2019-05-06T06:35:10.730Z,9.30
2019-05-06T06:37:36.428Z,6.97
2019-05-06T06:40:08.930Z,9.97
2019-05-06T06:42:37.801Z,10.43
2019-05-06T06:45:07.483Z,12.37
2019-05-06T06:47:36.441Z,6.10
2019-05-06T06:50:05.440Z,7.70
2019-05-06T06:52:34.201Z,10.10
2019-05-06T06:55:03.240Z,5.80
2019-05-06T06:57:51.807Z,16.97
2019-05-06T07:00:24.587Z,3.43
2019-05-06T07:02:55.817Z,5.90
2019-05-06T07:05:29.417Z,16.30
2019-05-06T07:07:58.376Z,15.00
2019-05-06T07:10:45.251Z,4.67
2019-05-06T07:13:15.451Z,3.63
2019-05-06T07:15:44.324Z,7.20
2019-05-06T07:18:13.657Z,6.17
2019-05-06T07:21:05.189Z,9.13
2019-05-06T07:23:38.512Z,5.87
2019-05-06T07:26:07.365Z,2.70
2019-05-06T07:28:36.138Z,13.73
2019-05-06T07:31:20.866Z,9.50
2019-05-06T07:33:35.467Z,13.40
2019-05-06T07:36:04.516Z,7.53
2019-05-06T07:38:33.298Z,13.73
2019-05-06T07:41:14.862Z,7.23
2019-05-06T07:43:47.677Z,12.70
2019-05-06T07:46:23.378Z,5.87
2019-05-06T07:48:51.899Z,5.80
2019-05-06T07:51:21.264Z,5.87
2019-05-06T07:53:52.342Z,4.33
2019-05-06T07:56:22.249Z,5.67
2019-05-06T07:58:52.866Z,4.53
2019-05-06T08:01:25.507Z,9.70
2019-05-06T08:03:53.247Z,8.53
2019-05-06T08:06:22.770Z,6.00
2019-05-06T08:08:53.640Z,5.27
2019-05-06T08:11:23.302Z,3.00
2019-05-06T08:13:52.829Z,4.93
2019-05-06T08:16:22.656Z,13.90
2019-05-06T08:18:52.451Z,7.33
2019-05-06T08:21:23.527Z,10.63
2019-05-06T08:23:53.931Z,4.60
2019-05-06T08:26:22.772Z,4.70
2019-05-06T08:28:52.698Z,3.83
2019-05-06T08:31:22.686Z,5.53
2019-05-06T08:33:52.466Z,4.10
2019-05-06T08:36:23.107Z,9.93
2019-05-06T08:39:05.841Z,4.70
2019-05-06T08:41:34.638Z,8.40
2019-05-06T08:44:03.645Z,7.00
2019-05-06T08:46:32.952Z,4.90
2019-05-06T08:49:03.111Z,5.63
2019-05-06T08:51:42.767Z,10.03
2019-05-06T08:54:22.824Z,5.43
2019-05-06T08:56:52.299Z,4.23
2019-05-06T08:59:21.142Z,3.57
2019-05-06T09:01:53.454Z,2.80
2019-05-06T09:04:22.783Z,8.33
2019-05-06T09:06:53.468Z,7.43
2019-05-06T09:09:22.521Z,5.10
2019-05-06T09:11:53.487Z,5.57
2019-05-06T09:14:23.156Z,10.43
2019-05-06T09:16:53.914Z,5.50
2019-05-06T09:19:23.273Z,2.80
2019-05-06T09:21:53.267Z,6.50
2019-05-06T09:24:23.201Z,4.80
2019-05-06T09:26:53.728Z,6.50
2019-05-06T09:29:24.148Z,2.13
2019-05-06T09:32:09.736Z,9.00
2019-05-06T09:34:52.947Z,4.27
2019-05-06T09:37:23.911Z,4.50
2019-05-06T09:39:53.470Z,8.10
2019-05-06T09:42:23.318Z,17.27
2019-05-06T09:44:54.068Z,4.63
2019-05-06T09:47:24.029Z,5.70
2019-05-06T09:49:53.221Z,2.73
2019-05-06T09:52:23.112Z,4.57
2019-05-06T09:54:56.194Z,5.30
2019-05-06T09:57:32.931Z,7.43
2019-05-06T10:00:04.584Z,5.07
2019-05-06T10:02:32.522Z,2.30
2019-05-06T10:05:03.519Z,3.13
2019-05-06T10:07:33.774Z,2.20
2019-05-06T10:10:02.307Z,9.43
2019-05-06T10:12:32.897Z,2.70
2019-05-06T10:15:03.199Z,2.93
2019-05-06T10:17:31.675Z,3.37
2019-05-06T10:20:02.631Z,7.30
2019-05-06T10:22:32.497Z,2.90
2019-05-06T10:25:03.751Z,6.07
2019-05-06T10:27:31.682Z,2.70
2019-05-06T10:30:07.776Z,3.30
2019-05-06T10:32:38.886Z,2.40
2019-05-06T10:35:08.347Z,2.40
2019-05-06T10:37:42.110Z,6.57
2019-05-06T10:40:16.166Z,4.97
2019-05-06T10:42:48.359Z,8.73
2019-05-06T10:45:28.270Z,2.03
2019-05-06T10:47:56.957Z,2.30
2019-05-06T10:50:26.910Z,4.80
2019-05-06T10:53:02.544Z,5.53
2019-05-06T10:55:32.437Z,3.00
2019-05-06T10:58:02.689Z,7.13
2019-05-06T11:00:33.135Z,4.70
2019-05-06T11:03:16.389Z,5.20
2019-05-06T11:05:45.173Z,3.00
2019-05-06T11:08:13.957Z,6.30
2019-05-06T11:10:45.273Z,2.13
2019-05-06T11:13:13.300Z,8.00
2019-05-06T11:15:43.435Z,2.20
2019-05-06T11:18:13.520Z,6.70
2019-05-06T11:20:43.697Z,3.40
2019-05-06T11:23:14.255Z,3.70
2019-05-06T11:25:43.482Z,9.37
2019-05-06T11:28:29.983Z,2.47
2019-05-06T11:31:02.512Z,4.60
2019-05-06T11:33:39.154Z,5.87
2019-05-06T11:36:09.479Z,2.20
2019-05-06T11:38:38.083Z,3.57
2019-05-06T11:41:06.791Z,4.20
2019-05-06T11:43:35.421Z,2.70
2019-05-06T11:46:04.231Z,2.43
2019-05-06T11:48:32.981Z,9.00
2019-05-06T11:51:03.349Z,3.40
2019-05-06T11:53:32.609Z,3.83
2019-05-06T11:56:02.194Z,2.40
2019-05-06T11:58:47.415Z,3.00
2019-05-06T12:01:36.298Z,4.97
2019-05-06T12:04:05.603Z,4.33
2019-05-06T12:06:34.305Z,8.97
2019-05-06T12:09:06.485Z,2.70
2019-05-06T12:11:33.768Z,2.97
2019-05-06T12:14:02.673Z,2.03
2019-05-06T12:16:33.085Z,2.60
2019-05-06T12:19:02.780Z,3.43
2019-05-06T12:21:32.945Z,2.20
2019-05-06T12:24:02.935Z,6.23
2019-05-06T12:26:34.785Z,7.13
2019-05-06T12:29:03.726Z,4.60
2019-05-06T12:31:33.003Z,5.87
2019-05-06T12:34:02.871Z,4.40
2019-05-06T12:36:32.603Z,3.80
2019-05-06T12:39:17.609Z,2.60
2019-05-06T12:41:49.834Z,4.40
2019-05-06T12:44:18.756Z,6.30
2019-05-06T12:46:52.920Z,3.20
2019-05-06T12:49:22.119Z,6.30
2019-05-06T12:51:50.952Z,3.43
2019-05-06T12:54:22.271Z,6.50
2019-05-06T12:56:51.900Z,2.37
2019-05-06T12:59:22.286Z,6.47
2019-05-06T13:01:53.993Z,6.27
2019-05-06T13:04:44.361Z,3.30
2019-05-06T13:06:52.341Z,10.23
2019-05-06T13:09:22.515Z,3.13
2019-05-06T13:11:52.386Z,6.33
2019-05-06T13:14:22.489Z,3.23
2019-05-06T13:16:53.286Z,2.00
2019-05-06T13:19:22.804Z,3.03
2019-05-06T13:21:51.752Z,7.00
2019-05-06T13:24:22.683Z,6.87
2019-05-06T13:26:52.834Z,5.83
2019-05-06T13:29:24.262Z,7.07
2019-05-06T13:31:53.225Z,4.90
2019-05-06T13:34:23.466Z,12.03
2019-05-06T13:36:53.275Z,4.67
2019-05-06T13:39:23.691Z,7.90
2019-05-06T13:41:53.035Z,3.50
2019-05-06T13:44:22.870Z,9.87
2019-05-06T13:46:53.434Z,2.27
2019-05-06T13:49:26.699Z,2.70
2019-05-06T13:52:03.433Z,7.10
2019-05-06T13:54:30.485Z,10.00
2019-05-06T13:56:59.469Z,2.07
2019-05-06T13:59:30.410Z,9.53
2019-05-06T14:02:16.370Z,4.53
2019-05-06T14:04:45.434Z,2.60
2019-05-06T14:07:14.266Z,2.63
2019-05-06T14:09:43.843Z,2.17
2019-05-06T14:12:12.837Z,2.13
2019-05-06T14:14:43.239Z,3.30
2019-05-06T14:17:12.801Z,4.07
2019-05-06T14:19:42.897Z,6.07
2019-05-06T14:22:12.664Z,2.50
2019-05-06T14:24:43.300Z,4.23
2019-05-06T14:27:12.542Z,3.10
2019-05-06T14:29:57.807Z,2.90
2019-05-06T14:32:26.624Z,3.63
2019-05-06T14:34:55.324Z,23.83
2019-05-06T14:37:24.080Z,7.17
2019-05-06T14:39:59.155Z,10.13
2019-05-06T14:42:24.966Z,3.23
2019-05-06T14:44:53.782Z,5.13
2019-05-06T14:47:24.136Z,3.10
2019-05-06T14:49:53.218Z,4.90
2019-05-06T14:52:22.564Z,9.50
2019-05-06T14:54:53.609Z,2.60
2019-05-06T14:57:23.667Z,3.13
2019-05-06T14:59:55.596Z,3.80
2019-05-06T15:02:26.210Z,5.10
2019-05-06T15:04:55.244Z,7.80
2019-05-06T15:07:23.947Z,3.07
2019-05-06T15:10:07.664Z,3.30
2019-05-06T15:12:23.446Z,6.30
2019-05-06T15:14:52.798Z,3.40
2019-05-06T15:17:22.954Z,2.70
2019-05-06T15:19:52.750Z,3.57
2019-05-06T15:22:22.628Z,8.80
2019-05-06T15:24:53.676Z,3.23
2019-05-06T15:27:22.852Z,9.97
2019-05-06T15:29:54.826Z,6.57
2019-05-06T15:32:25.356Z,4.97
2019-05-06T15:34:56.353Z,4.13
2019-05-06T15:37:33.869Z,5.83
2019-05-06T15:40:03.225Z,19.97
2019-05-06T15:42:34.076Z,12.03
2019-05-06T15:45:02.744Z,12.70
2019-05-06T15:47:32.269Z,27.90
2019-05-06T15:50:01.413Z,7.00
2019-05-06T15:52:32.296Z,3.60
2019-05-06T15:55:03.120Z,3.60
2019-05-06T15:57:32.444Z,10.53
2019-05-06T16:00:02.566Z,3.73
2019-05-06T16:02:33.465Z,3.50
2019-05-06T16:05:11.324Z,7.27
2019-05-06T16:07:36.987Z,9.27
2019-05-06T16:10:02.926Z,3.87
2019-05-06T16:12:32.023Z,4.77
2019-05-06T16:15:02.576Z,3.70
2019-05-06T16:17:32.833Z,5.53
2019-05-06T16:20:02.731Z,5.13
2019-05-06T16:22:33.664Z,9.37
2019-05-06T16:25:04.015Z,123.47
2019-05-06T16:27:32.725Z,108.73
2019-05-06T16:30:03.447Z,44.00
2019-05-06T16:32:33.213Z,23.10
2019-05-06T16:35:02.141Z,16.43
2019-05-06T16:37:32.938Z,3.60
2019-05-06T16:40:02.770Z,7.93
2019-05-06T16:42:32.100Z,6.80
2019-05-06T16:45:06.787Z,10.07
2019-05-06T16:47:38.984Z,9.80
2019-05-06T16:50:12.976Z,6.07
2019-05-06T16:52:42.609Z,7.23
2019-05-06T16:55:14.340Z,4.97
2019-05-06T16:57:44.919Z,4.60
2019-05-06T17:00:15.477Z,10.53
2019-05-06T17:02:55.922Z,5.50
2019-05-06T17:05:18.041Z,5.43
2019-05-06T17:07:48.547Z,3.67
2019-05-06T17:10:17.376Z,3.10
2019-05-06T17:12:46.125Z,6.23
2019-05-06T17:15:15.506Z,8.73
2019-05-06T17:17:46.985Z,3.00
2019-05-06T17:20:14.809Z,3.50
2019-05-06T17:22:43.540Z,5.90
2019-05-06T17:25:12.580Z,5.73
2019-05-06T17:27:43.514Z,5.00
2019-05-06T17:30:16.977Z,6.93
2019-05-06T17:32:47.329Z,3.23
2019-05-06T17:35:16.195Z,5.10
2019-05-06T17:37:49.506Z,4.13
2019-05-06T17:40:22.789Z,3.33
2019-05-06T17:42:53.116Z,3.90
2019-05-06T17:45:43.037Z,3.10
2019-05-06T17:48:16.162Z,5.77
2019-05-06T17:50:46.598Z,4.63
2019-05-06T17:53:15.313Z,9.73
2019-05-06T17:55:44.063Z,4.87
2019-05-06T17:58:13.152Z,3.13
2019-05-06T18:00:42.961Z,3.87
2019-05-06T18:03:11.768Z,4.57
2019-05-06T18:05:42.184Z,4.40
2019-05-06T18:08:12.846Z,4.20
2019-05-06T18:10:42.671Z,3.30
2019-05-06T18:13:12.639Z,4.73
2019-05-06T18:15:43.103Z,5.00
2019-05-06T18:18:13.058Z,4.67
2019-05-06T18:20:42.735Z,2.50
2019-05-06T18:23:12.969Z,2.40
2019-05-06T18:25:43.043Z,8.20
2019-05-06T18:28:12.315Z,2.43
2019-05-06T18:30:41.181Z,3.07
2019-05-06T18:33:09.941Z,2.23
2019-05-06T18:35:38.747Z,2.00
2019-05-06T18:38:07.674Z,2.50
2019-05-06T18:40:36.447Z,2.97
2019-05-06T18:43:05.376Z,4.00
2019-05-06T18:45:35.174Z,3.80
2019-05-06T18:48:04.177Z,3.00
2019-05-06T18:50:32.909Z,2.70
2019-05-06T18:53:02.416Z,1.73
2019-05-06T18:55:33.082Z,1.87
2019-05-06T18:58:02.240Z,1.70
2019-05-06T19:00:31.990Z,1.03
2019-05-06T19:03:02.644Z,1.70
2019-05-06T19:05:36.505Z,2.07
2019-05-06T19:08:07.015Z,1.40
2019-05-06T19:10:35.766Z,1.93
2019-05-06T19:13:04.503Z,1.63
2019-05-06T19:15:33.851Z,1.80
2019-05-06T19:18:02.522Z,1.70
2019-05-06T19:20:33.863Z,1.87
2019-05-06T19:23:02.375Z,2.20
2019-05-06T19:25:34.339Z,1.77
2019-05-06T19:28:02.386Z,1.77
2019-05-06T19:30:32.058Z,3.73
2019-05-06T19:33:03.010Z,1.70
2019-05-06T19:35:34.193Z,1.73
2019-05-06T19:38:02.934Z,2.90
2019-05-06T19:40:32.328Z,2.33
2019-05-06T19:43:02.995Z,5.13
2019-05-06T19:45:34.430Z,2.05
2019-05-06T19:48:02.907Z,2.10
2019-05-06T19:50:32.991Z,5.23
2019-05-06T19:53:01.785Z,1.93
2019-05-06T19:55:30.650Z,2.13
2019-05-06T19:57:59.513Z,1.50
2019-05-06T20:00:28.693Z,3.03
2019-05-06T20:02:57.511Z,1.37
2019-05-06T20:05:43.969Z,1.70
2019-05-06T20:08:17.233Z,1.90
2019-05-06T20:10:56.870Z,1.50
2019-05-06T20:13:25.478Z,1.50
2019-05-06T20:15:54.157Z,2.77
2019-05-06T20:18:22.954Z,3.10
2019-05-06T20:20:52.803Z,3.53
2019-05-06T20:23:23.216Z,2.53
2019-05-06T20:25:52.048Z,1.90
2019-05-06T20:28:22.818Z,4.00
2019-05-06T20:30:52.877Z,3.17
2019-05-06T20:33:22.099Z,2.77
2019-05-06T20:35:52.609Z,2.10
2019-05-06T20:38:23.177Z,2.80
2019-05-06T20:40:51.559Z,2.40
2019-05-06T20:43:23.216Z,2.60
2019-05-06T20:45:52.193Z,9.47
2019-05-06T20:48:23.341Z,2.60
2019-05-06T20:50:52.392Z,3.43
2019-05-06T20:53:22.609Z,3.07
2019-05-06T20:55:53.245Z,2.63
2019-05-06T20:58:23.004Z,2.30
2019-05-06T21:00:52.285Z,3.50
2019-05-06T21:03:22.145Z,3.13
2019-05-06T21:05:51.080Z,3.03
2019-05-06T21:08:21.947Z,3.70
2019-05-06T21:10:52.747Z,2.50
2019-05-06T21:13:29.572Z,2.90
2019-05-06T21:15:51.223Z,2.50
2019-05-06T21:18:19.985Z,2.73
2019-05-06T21:20:48.868Z,3.57
2019-05-06T21:23:17.757Z,2.33
2019-05-06T21:25:46.765Z,3.07
2019-05-06T21:28:15.860Z,5.63
2019-05-06T21:30:44.825Z,2.80
2019-05-06T21:33:13.756Z,3.00
2019-05-06T21:35:42.608Z,2.30
2019-05-06T21:38:12.168Z,3.30
2019-05-06T21:40:43.347Z,3.33
2019-05-06T21:43:13.013Z,3.23
2019-05-06T21:45:42.455Z,7.10
2019-05-06T21:48:13.431Z,4.23
2019-05-06T21:50:42.691Z,6.03
2019-05-06T21:53:14.421Z,5.63
2019-05-06T21:55:42.173Z,3.40
2019-05-06T21:58:12.450Z,3.37
2019-05-06T22:00:43.490Z,4.23
2019-05-06T22:03:13.373Z,3.10
2019-05-06T22:05:42.344Z,6.73
2019-05-06T22:08:12.901Z,3.47
2019-05-06T22:10:42.276Z,4.30
2019-05-06T22:13:14.311Z,5.23
2019-05-06T22:15:42.240Z,3.60
2019-05-06T22:18:12.427Z,3.47
2019-05-06T22:20:43.286Z,3.60
2019-05-06T22:23:14.408Z,3.93
2019-05-06T22:25:42.281Z,3.73
2019-05-06T22:28:11.999Z,3.67
2019-05-06T22:30:42.484Z,4.17
2019-05-06T22:33:12.594Z,4.40
2019-05-06T22:35:43.035Z,3.70
2019-05-06T22:38:12.336Z,5.07
2019-05-06T22:40:42.494Z,2.80
2019-05-06T22:43:12.289Z,5.37
2019-05-06T22:45:42.529Z,3.67
2019-05-06T22:48:12.099Z,6.67
2019-05-06T22:50:42.459Z,3.80
2019-05-06T22:53:13.052Z,3.60
2019-05-06T22:55:42.806Z,11.03
2019-05-06T22:58:12.040Z,3.23
2019-05-06T23:00:42.584Z,3.87
2019-05-06T23:03:12.925Z,5.70
2019-05-06T23:05:42.336Z,4.50
2019-05-06T23:08:12.280Z,3.30
2019-05-06T23:10:42.262Z,4.13
2019-05-06T23:13:12.395Z,3.07
2019-05-06T23:15:42.097Z,3.30
2019-05-06T23:18:10.898Z,4.30
2019-05-06T23:20:39.644Z,4.83
2019-05-06T23:23:08.348Z,3.30
2019-05-06T23:25:37.097Z,5.03
2019-05-06T23:28:05.704Z,3.60
2019-05-06T23:30:34.572Z,3.53
2019-05-06T23:33:03.242Z,3.00
2019-05-06T23:35:31.852Z,3.67
2019-05-06T23:38:37.125Z,5.23
2019-05-06T23:41:42.364Z,3.83
2019-05-06T23:44:47.591Z,3.50
2019-05-06T23:47:53.214Z,6.10
2019-05-06T23:50:58.575Z,4.27
2019-05-06T23:54:03.977Z,3.60
2019-05-06T23:56:43.402Z,3.70
2019-05-06T23:59:16.217Z,3.53
